Sheffield Square, Vermont
Current Conditions -  °F | °C
As of 2:15 PM on Friday 24 Oct 2014 (Local Time) from KCDA Reporting Station
Overcast Overcast  
Wind Chill: 37°   Ceiling: 800
Heat Index: 43°   Visibility: 7mi
Dew Point: 39°   Wind: 10mph
Humidity: 85%   Direction: 290°WNW
Pressure: 29.77"   Gusts: NA
Location:  44.6401°N, 72.1245°W
Report Text: KCDA 241815Z AUTO 29009KT 250V320 7SM OVC008 06/04 A2977 RMK AO2 T00610038
Loading
Personal Weather Stations






























Interactive Weather Map
Tropical Storm Tracking
New forecast layout! Learn more

10-Day Weather Forecast

Advertisements
Track Severe Weather on mobile